Time;durP1;ratioP1;P1;durP2;ratioP2;P2;SDS_P1;SDS_P2;PMS_P1;PMS_P2;Temp;Humidity;BMP_temperature;BMP_pressure;BME280_temperature;BME280_humidity;BME280_pressure;Samples;Min_cycle;Max_cycle;Signal;HPM_P1;HPM_P2
2022/07/14 00:00:12;;;;;;;18.85;4.70;;;;;;;21.08;93.92;101595.69;5042667;28;20191;-70
2022/07/14 00:02:39;;;;;;;14.98;4.03;;;;;;;21.01;94.41;101599.53;5039231;28;20458;-71
2022/07/14 00:05:06;;;;;;;19.95;5.03;;;;;;;20.91;95.26;101605.44;5034436;28;20076;-70
2022/07/14 00:07:34;;;;;;;23.67;5.60;;;;;;;20.88;95.95;101620.38;5037846;28;20123;-73
2022/07/14 00:10:00;;;;;;;16.77;5.45;;;;;;;20.83;96.30;101623.75;5037076;28;20422;-71
2022/07/14 00:12:27;;;;;;;23.67;5.95;;;;;;;20.72;96.51;101606.41;5033511;28;20051;-71
2022/07/14 00:14:53;;;;;;;20.27;6.22;;;;;;;20.71;96.76;101616.84;5037047;28;20102;-72
2022/07/14 00:17:20;;;;;;;18.88;5.57;;;;;;;20.62;96.76;101607.50;5040477;28;20623;-70
2022/07/14 00:19:47;;;;;;;23.15;5.20;;;;;;;20.61;97.08;101612.31;5030815;28;20103;-70
2022/07/14 00:22:13;;;;;;;14.63;3.95;;;;;;;20.60;97.15;101607.16;5041232;28;20060;-70
2022/07/14 00:24:40;;;;;;;23.08;4.70;;;;;;;20.54;96.95;101603.28;5035872;28;20049;-71
2022/07/14 00:27:07;;;;;;;17.50;4.40;;;;;;;20.48;96.36;101607.91;5030191;28;20049;-70
2022/07/14 00:29:35;;;;;;;21.52;4.13;;;;;;;20.46;97.08;101604.72;5029378;28;20099;-73
2022/07/14 00:32:03;;;;;;;22.60;3.70;;;;;;;20.41;96.97;101606.06;5039432;28;20076;-71
2022/07/14 00:34:29;;;;;;;18.10;3.97;;;;;;;20.36;97.69;101601.00;5041489;28;20088;-71
2022/07/14 00:36:56;;;;;;;15.65;3.65;;;;;;;20.38;97.85;101604.94;5034614;28;20136;-71
2022/07/14 00:39:23;;;;;;;17.17;4.05;;;;;;;20.34;97.41;101592.19;5042446;28;20081;-71
2022/07/14 00:41:49;;;;;;;18.90;4.55;;;;;;;20.31;98.22;101590.28;5034570;28;20057;-70
2022/07/14 00:44:16;;;;;;;18.48;3.97;;;;;;;20.25;97.64;101598.47;5039718;28;20053;-69
2022/07/14 00:46:42;;;;;;;20.17;4.85;;;;;;;20.17;98.54;101599.88;5045713;28;20494;-73
2022/07/14 00:49:09;;;;;;;24.13;4.38;;;;;;;20.18;99.04;101609.09;5038976;28;20708;-71
2022/07/14 00:51:40;;;;;;;17.77;4.05;;;;;;;20.11;100.00;101604.47;5040028;28;20099;-74
2022/07/14 00:54:07;;;;;;;23.13;4.28;;;;;;;20.13;99.92;101595.59;5027818;28;20053;-72
2022/07/14 00:56:33;;;;;;;21.05;4.45;;;;;;;20.09;99.69;101592.06;5033458;28;20045;-70
2022/07/14 00:59:00;;;;;;;21.80;4.90;;;;;;;20.03;100.00;101586.19;5043861;28;20088;-73
2022/07/14 01:01:31;;;;;;;20.73;4.60;;;;;;;19.99;100.00;101593.13;5028634;28;20053;-73
2022/07/14 01:03:57;;;;;;;21.17;4.53;;;;;;;19.94;100.00;101585.22;5036925;28;20083;-70
2022/07/14 01:06:24;;;;;;;20.50;3.67;;;;;;;19.88;100.00;101587.75;5041861;28;20045;-71
2022/07/14 01:08:50;;;;;;;15.07;3.30;;;;;;;19.83;100.00;101577.06;5033896;28;20087;-70
2022/07/14 01:11:17;;;;;;;15.95;3.67;;;;;;;19.82;100.00;101578.31;5035996;28;20073;-73
2022/07/14 01:13:45;;;;;;;16.05;3.65;;;;;;;19.78;100.00;101585.25;5040566;28;20124;-71
2022/07/14 01:16:11;;;;;;;21.95;4.30;;;;;;;19.74;100.00;101584.53;5035988;28;20059;-70
2022/07/14 01:18:38;;;;;;;18.00;3.97;;;;;;;19.63;100.00;101579.19;5039206;28;20072;-69
2022/07/14 01:21:07;;;;;;;17.30;4.25;;;;;;;19.61;100.00;101601.28;5040981;28;20053;-69
2022/07/14 01:23:35;;;;;;;18.63;4.05;;;;;;;19.54;100.00;101604.25;5043905;28;20052;-70
2022/07/14 01:26:01;;;;;;;14.18;3.35;;;;;;;19.48;100.00;101599.63;5030067;28;20061;-74
2022/07/14 01:28:28;;;;;;;22.35;3.95;;;;;;;19.46;100.00;101608.47;5040729;28;20143;-70
2022/07/14 01:30:54;;;;;;;17.58;3.85;;;;;;;19.44;100.00;101599.69;5033211;28;20725;-69
2022/07/14 01:33:21;;;;;;;17.10;4.30;;;;;;;19.43;100.00;101588.91;5035781;28;20053;-70
2022/07/14 01:35:48;;;;;;;16.92;3.80;;;;;;;19.39;100.00;101583.38;5042460;28;20137;-70
2022/07/14 01:38:16;;;;;;;17.85;4.10;;;;;;;19.37;100.00;101580.22;5045311;28;20559;-70
2022/07/14 01:40:44;;;;;;;16.55;4.03;;;;;;;19.36;100.00;101575.03;5041064;28;20045;-70
2022/07/14 01:43:11;;;;;;;18.35;4.78;;;;;;;19.31;100.00;101579.16;5042518;28;20469;-69
2022/07/14 01:45:37;;;;;;;17.52;4.18;;;;;;;19.31;100.00;101581.94;5038063;28;20079;-70
2022/07/14 01:48:04;;;;;;;19.58;3.97;;;;;;;19.31;100.00;101593.19;5046872;28;20056;-73
2022/07/14 01:50:31;;;;;;;20.65;4.50;;;;;;;19.25;100.00;101594.09;5044531;28;20121;-69
2022/07/14 01:52:57;;;;;;;18.73;3.72;;;;;;;19.21;100.00;101599.00;5044125;28;20059;-72
2022/07/14 01:55:24;;;;;;;15.50;3.60;;;;;;;19.05;100.00;101593.34;5043418;28;20396;-73
2022/07/14 01:57:51;;;;;;;16.75;3.80;;;;;;;18.97;100.00;101598.31;5046446;28;20049;-70
2022/07/14 02:00:18;;;;;;;19.67;4.30;;;;;;;18.98;100.00;101605.53;5031587;28;20132;-72
2022/07/14 02:02:44;;;;;;;22.25;3.95;;;;;;;19.06;100.00;101611.75;5042725;28;20078;-72
2022/07/14 02:05:11;;;;;;;23.08;4.15;;;;;;;19.12;100.00;101618.44;5040637;28;20107;-72
2022/07/14 02:07:38;;;;;;;14.63;3.58;;;;;;;19.11;100.00;101612.06;5049361;28;20114;-71
2022/07/14 02:12:54;;;;;;;24.80;4.18;;;;;;;19.13;100.00;101609.59;5042575;28;20108;-76
2022/07/14 02:15:21;;;;;;;19.90;4.38;;;;;;;19.13;100.00;101617.25;5038272;28;20076;-71
2022/07/14 02:17:48;;;;;;;19.67;4.43;;;;;;;19.12;100.00;101618.44;5045980;28;20049;-70
2022/07/14 02:20:15;;;;;;;16.40;3.85;;;;;;;19.11;100.00;101614.88;5042031;28;20479;-73
2022/07/14 02:22:41;;;;;;;23.13;4.20;;;;;;;19.05;100.00;101601.78;5038653;28;20132;-69
2022/07/14 02:25:08;;;;;;;20.75;3.88;;;;;;;19.04;100.00;101603.78;5043962;28;20128;-72
2022/07/14 02:27:35;;;;;;;19.17;4.05;;;;;;;19.04;100.00;101608.63;5034295;28;20281;-71
2022/07/14 02:30:03;;;;;;;19.50;4.45;;;;;;;19.02;100.00;101605.44;5046915;28;20476;-73
2022/07/14 02:32:31;;;;;;;24.10;4.78;;;;;;;19.00;100.00;101605.88;5042543;28;20060;-71
2022/07/14 02:34:58;;;;;;;14.57;3.58;;;;;;;18.93;100.00;101606.03;5048165;28;20049;-71
2022/07/14 02:37:25;;;;;;;22.15;4.30;;;;;;;18.91;100.00;101600.09;5042479;28;20044;-72
2022/07/14 02:39:51;;;;;;;26.25;4.35;;;;;;;18.91;100.00;101596.47;5046913;28;20160;-73
2022/07/14 02:42:18;;;;;;;19.58;4.03;;;;;;;18.85;100.00;101590.59;5047066;28;20140;-69
2022/07/14 02:44:44;;;;;;;18.08;4.65;;;;;;;18.83;100.00;101595.81;5041194;28;20072;-70
2022/07/14 02:47:12;;;;;;;21.40;4.60;;;;;;;18.84;100.00;101596.63;5035706;28;20057;-70
2022/07/14 02:49:38;;;;;;;23.23;4.30;;;;;;;18.82;100.00;101591.44;5038744;28;20077;-69
2022/07/14 02:52:05;;;;;;;23.13;4.60;;;;;;;18.81;100.00;101601.09;5039277;28;20115;-72
2022/07/14 02:54:31;;;;;;;20.67;4.30;;;;;;;18.81;100.00;101595.47;5034118;28;20065;-73
2022/07/14 02:56:58;;;;;;;21.58;4.65;;;;;;;18.79;100.00;101594.31;5045780;28;20045;-73
2022/07/14 02:59:24;;;;;;;17.75;5.75;;;;;;;18.76;100.00;101595.97;5038806;28;20426;-70
2022/07/14 03:01:51;;;;;;;22.70;5.22;;;;;;;18.74;100.00;101603.25;5040118;28;20053;-70
2022/07/14 03:04:18;;;;;;;21.75;4.53;;;;;;;18.73;100.00;101596.84;5041928;28;20049;-70
2022/07/14 03:06:45;;;;;;;23.70;4.22;;;;;;;18.71;100.00;101596.50;5032456;28;20518;-70
2022/07/14 03:09:12;;;;;;;17.50;4.25;;;;;;;18.73;100.00;101599.63;5029612;28;20046;-70
2022/07/14 03:11:38;;;;;;;19.38;4.18;;;;;;;18.65;100.00;101581.41;5028666;28;20068;-73
2022/07/14 03:14:05;;;;;;;21.50;4.10;;;;;;;18.69;100.00;101584.13;5028912;28;21226;-69
2022/07/14 03:16:31;;;;;;;24.00;4.38;;;;;;;18.64;100.00;101585.44;5040000;28;20522;-70
2022/07/14 03:18:58;;;;;;;19.15;4.80;;;;;;;18.60;100.00;101595.13;5040312;28;20570;-72
2022/07/14 03:21:25;;;;;;;19.00;4.10;;;;;;;18.61;100.00;101602.31;5038959;28;20044;-71
2022/07/14 03:23:51;;;;;;;15.48;4.38;;;;;;;18.61;100.00;101605.09;5039834;28;20044;-72
2022/07/14 03:26:18;;;;;;;19.33;4.45;;;;;;;18.57;100.00;101593.97;5038636;28;20135;-69
2022/07/14 03:28:44;;;;;;;25.05;4.75;;;;;;;18.58;100.00;101594.75;5043184;28;20148;-70
2022/07/14 03:31:11;;;;;;;28.25;4.97;;;;;;;18.57;100.00;101604.41;5042383;28;20132;-74
2022/07/14 03:33:38;;;;;;;22.13;5.40;;;;;;;18.50;100.00;101604.53;5044700;28;20064;-70
2022/07/14 03:36:05;;;;;;;26.35;4.72;;;;;;;18.45;100.00;101600.22;5036104;28;20051;-70
2022/07/14 03:38:32;;;;;;;19.52;4.32;;;;;;;18.46;100.00;101609.41;5042235;28;20075;-71
2022/07/14 03:41:03;;;;;;;23.42;4.57;;;;;;;18.43;100.00;101605.47;5046924;28;20370;-70
2022/07/14 03:43:31;;;;;;;21.52;4.47;;;;;;;18.33;100.00;101600.84;5045046;28;20052;-75
2022/07/14 03:45:58;;;;;;;21.08;4.03;;;;;;;18.31;100.00;101603.25;5039686;28;20060;-68
2022/07/14 03:48:25;;;;;;;21.25;5.40;;;;;;;18.31;100.00;101596.84;5039963;28;20528;-73
2022/07/14 03:50:51;;;;;;;20.23;4.53;;;;;;;18.34;100.00;101596.81;5045877;28;20067;-72
2022/07/14 03:53:18;;;;;;;23.33;4.22;;;;;;;18.34;100.00;101588.41;5038681;28;20084;-69
2022/07/14 03:55:45;;;;;;;19.25;4.30;;;;;;;18.36;100.00;101597.19;5028005;28;20057;-67
2022/07/14 03:58:18;;;;;;;22.60;4.15;;;;;;;18.36;100.00;101585.19;5028060;28;20148;-70
2022/07/14 04:00:45;;;;;;;18.33;4.68;;;;;;;18.34;100.00;101582.78;5043657;28;20052;-67
2022/07/14 04:03:12;;;;;;;18.38;4.35;;;;;;;18.35;100.00;101580.78;5044832;28;20048;-73
2022/07/14 04:05:39;;;;;;;23.30;5.05;;;;;;;18.37;100.00;101587.56;5043564;28;20083;-70
2022/07/14 04:08:05;;;;;;;22.15;4.80;;;;;;;18.39;100.00;101587.16;5041148;28;20145;-69
2022/07/14 04:10:32;;;;;;;27.73;6.32;;;;;;;18.30;100.00;101584.88;5041028;28;20053;-71
2022/07/14 04:12:58;;;;;;;24.10;4.65;;;;;;;18.28;100.00;101587.31;5038464;28;20080;-70
2022/07/14 04:15:27;;;;;;;26.73;5.20;;;;;;;18.26;100.00;101584.13;5035799;28;20056;-70
2022/07/14 04:17:53;;;;;;;18.98;4.40;;;;;;;18.25;100.00;101582.56;5042971;28;20132;-71
2022/07/14 04:20:21;;;;;;;21.88;4.53;;;;;;;18.23;100.00;101582.22;5033990;28;20083;-72
2022/07/14 04:22:48;;;;;;;17.08;4.00;;;;;;;18.23;100.00;101587.81;5038891;28;20560;-75
2022/07/14 04:25:15;;;;;;;17.75;4.45;;;;;;;18.20;100.00;101587.88;5042963;28;20057;-70
2022/07/14 04:27:42;;;;;;;21.60;4.93;;;;;;;18.16;100.00;101601.97;5046024;28;20041;-70
2022/07/14 04:30:12;;;;;;;22.85;4.88;;;;;;;18.12;100.00;101595.59;5033414;28;20057;-70
2022/07/14 04:32:38;;;;;;;17.70;3.97;;;;;;;18.08;100.00;101592.06;5045484;28;20072;-69
2022/07/14 04:35:05;;;;;;;20.65;4.20;;;;;;;18.06;100.00;101590.94;5037995;28;20049;-73
2022/07/14 04:37:32;;;;;;;19.70;3.92;;;;;;;18.04;100.00;101599.75;5037949;28;20044;-70
2022/07/14 04:39:58;;;;;;;21.23;5.60;;;;;;;18.00;100.00;101601.84;5046819;28;20143;-70
2022/07/14 04:42:25;;;;;;;17.08;4.50;;;;;;;18.00;100.00;101601.84;5044255;28;20045;-72
2022/07/14 04:44:52;;;;;;;18.65;4.32;;;;;;;18.02;100.00;101604.97;5033641;28;20143;-69
2022/07/14 04:47:19;;;;;;;19.25;4.72;;;;;;;17.99;100.00;101598.22;5034181;28;20506;-69
2022/07/14 04:52:31;;;;;;;23.48;6.15;;;;;;;17.98;100.00;101601.47;5043937;28;20079;-70
2022/07/14 04:54:57;;;;;;;21.33;4.43;;;;;;;18.08;100.00;101608.13;5035938;28;20471;-72
2022/07/14 04:57:24;;;;;;;21.80;4.32;;;;;;;18.10;100.00;101597.25;5036043;28;20112;-70
2022/07/14 04:59:58;;;;;;;21.02;4.78;;;;;;;18.11;100.00;101599.63;5035913;28;20084;-71
2022/07/14 05:02:25;;;;;;;24.88;5.43;;;;;;;18.11;100.00;101602.44;5035193;28;20069;-69
2022/07/14 05:04:52;;;;;;;25.23;4.80;;;;;;;18.19;100.00;101603.88;5038550;28;20041;-70
2022/07/14 05:07:19;;;;;;;18.50;4.47;;;;;;;18.20;100.00;101594.28;5035998;28;20156;-70
2022/07/14 05:09:46;;;;;;;23.20;4.85;;;;;;;18.28;100.00;101598.50;5041904;28;20076;-73
2022/07/14 05:12:15;;;;;;;22.48;4.38;;;;;;;18.34;100.00;101602.41;5042816;28;20144;-71
2022/07/14 05:14:42;;;;;;;17.52;3.88;;;;;;;18.36;100.00;101599.22;5044145;28;20049;-75
2022/07/14 05:17:09;;;;;;;22.98;5.10;;;;;;;18.39;100.00;101589.94;5035149;28;20080;-70
2022/07/14 05:19:42;;;;;;;24.73;4.47;;;;;;;18.37;100.00;101590.38;5040059;28;20045;-73
2022/07/14 05:22:08;;;;;;;24.23;4.28;;;;;;;18.32;100.00;101599.22;5032304;28;20045;-71
2022/07/14 05:24:35;;;;;;;22.10;4.93;;;;;;;18.33;100.00;101600.84;5039088;28;20056;-69
2022/07/14 05:27:02;;;;;;;20.67;6.47;;;;;;;18.37;100.00;101601.59;5042702;28;20053;-73
2022/07/14 05:29:28;;;;;;;16.08;3.72;;;;;;;18.41;100.00;101604.31;5039187;28;20210;-73
2022/07/14 05:31:57;;;;;;;19.50;4.22;;;;;;;18.40;100.00;101599.94;5045396;28;20132;-72
2022/07/14 05:34:31;;;;;;;17.88;5.00;;;;;;;18.39;100.00;101599.13;5039713;28;20060;-70
2022/07/14 05:36:59;;;;;;;16.27;3.90;;;;;;;18.38;100.00;101605.97;5039758;28;20115;-71
2022/07/14 05:39:25;;;;;;;20.73;3.75;;;;;;;18.39;100.00;101610.34;5046866;28;20132;-75
2022/07/14 05:41:52;;;;;;;18.90;5.00;;;;;;;18.50;100.00;101612.94;5037992;28;20810;-73
2022/07/14 05:44:18;;;;;;;17.88;4.68;;;;;;;18.55;100.00;101604.81;5035966;28;20160;-76
2022/07/14 05:46:45;;;;;;;24.10;4.45;;;;;;;18.62;100.00;101604.69;5035095;28;20053;-73
2022/07/14 05:49:12;;;;;;;20.45;4.15;;;;;;;18.66;100.00;101605.41;5044279;28;20049;-72
2022/07/14 05:51:38;;;;;;;21.55;4.53;;;;;;;18.81;100.00;101612.31;5034775;28;20081;-74
2022/07/14 05:54:05;;;;;;;30.50;5.50;;;;;;;18.94;100.00;101621.66;5045037;28;20515;-75
2022/07/14 05:56:31;;;;;;;23.83;4.80;;;;;;;19.03;100.00;101609.84;5037534;28;20127;-72
2022/07/14 05:58:58;;;;;;;22.52;3.85;;;;;;;19.04;100.00;101600.19;5031671;28;20438;-74
2022/07/14 06:01:44;;;;;;;18.35;4.20;;;;;;;19.04;100.00;101600.97;5032022;28;20048;-72
2022/07/14 06:04:12;;;;;;;24.38;4.53;;;;;;;19.12;100.00;101601.63;5029694;28;20108;-77
2022/07/14 06:06:43;;;;;;;25.00;4.68;;;;;;;19.15;100.00;101607.16;5042041;28;20493;-71
2022/07/14 06:09:10;;;;;;;19.55;3.78;;;;;;;19.15;100.00;101607.16;5045415;28;20075;-73
2022/07/14 06:11:39;;;;;;;15.13;3.42;;;;;;;19.20;100.00;101606.63;5040518;28;20510;-74
2022/07/14 06:14:07;;;;;;;14.18;3.50;;;;;;;19.24;100.00;101604.53;5040475;28;20513;-72
2022/07/14 06:16:34;;;;;;;20.48;3.35;;;;;;;19.23;100.00;101608.56;5044062;28;20049;-73
2022/07/14 06:19:01;;;;;;;25.02;4.50;;;;;;;19.21;100.00;101613.84;5038116;28;20056;-73
2022/07/14 06:21:31;;;;;;;24.20;3.45;;;;;;;19.25;100.00;101622.16;5044962;28;20063;-74
2022/07/14 06:23:57;;;;;;;24.52;4.22;;;;;;;19.32;100.00;101617.22;5042706;28;20140;-77
2022/07/14 06:26:24;;;;;;;19.52;3.92;;;;;;;19.36;100.00;101620.75;5042806;28;20148;-74
2022/07/14 06:28:50;;;;;;;17.85;3.95;;;;;;;19.42;100.00;101626.63;5041106;28;20080;-75
2022/07/14 06:31:17;;;;;;;21.10;4.07;;;;;;;19.55;100.00;101635.94;5047355;28;20538;-74
2022/07/14 06:33:44;;;;;;;24.00;4.05;;;;;;;19.64;100.00;101636.91;5048203;28;20084;-73
2022/07/14 06:36:10;;;;;;;21.83;3.78;;;;;;;19.67;100.00;101641.66;5040786;28;20497;-75
2022/07/14 06:38:37;;;;;;;27.75;4.25;;;;;;;19.72;100.00;101638.34;5044286;28;20073;-74
2022/07/14 06:41:03;;;;;;;17.48;3.85;;;;;;;19.77;99.80;101634.19;5033670;28;20566;-73
2022/07/14 06:43:30;;;;;;;19.15;3.72;;;;;;;19.81;99.12;101627.25;5037023;28;20107;-76
2022/07/14 06:45:57;;;;;;;17.90;3.22;;;;;;;19.89;98.76;101622.28;5035086;28;20582;-74
2022/07/14 06:48:24;;;;;;;15.90;2.97;;;;;;;19.89;98.07;101599.81;5048341;28;20510;-70
2022/07/14 06:50:50;;;;;;;25.33;4.18;;;;;;;19.99;97.57;101610.78;5049329;28;20729;-82
2022/07/14 06:53:17;;;;;;;22.70;4.25;;;;;;;20.07;97.31;101603.72;5039033;28;20049;-74
2022/07/14 06:55:43;;;;;;;26.08;4.45;;;;;;;20.15;97.18;101607.97;5048464;28;20088;-71
2022/07/14 06:58:10;;;;;;;12.35;3.13;;;;;;;20.16;96.16;101598.31;5046216;28;20160;-76
2022/07/14 07:00:36;;;;;;;18.85;3.70;;;;;;;20.31;96.08;101607.94;5047411;28;20057;-73
2022/07/14 07:03:09;;;;;;;18.15;3.38;;;;;;;20.33;94.87;101597.06;5047391;28;20052;-73
2022/07/14 07:08:23;;;;;;;19.55;3.78;;;;;;;20.58;93.32;101592.75;5045960;28;20076;-72
2022/07/14 07:10:50;;;;;;;18.92;4.07;;;;;;;20.73;93.47;101602.34;5044660;28;20141;-73
2022/07/14 07:13:17;;;;;;;13.73;3.15;;;;;;;20.80;91.65;101604.97;5046841;28;20621;-69
2022/07/14 07:15:43;;;;;;;16.67;3.20;;;;;;;20.82;91.52;101594.84;5042474;28;20131;-74
2022/07/14 07:18:10;;;;;;;19.02;3.90;;;;;;;20.82;90.69;101600.47;5046876;28;20045;-73
2022/07/14 07:20:37;;;;;;;15.30;2.90;;;;;;;20.88;90.55;101595.88;5035387;28;20450;-72
2022/07/14 07:23:04;;;;;;;11.55;2.88;;;;;;;20.95;89.82;101608.97;5042332;28;20111;-75
2022/07/14 07:25:30;;;;;;;16.15;3.33;;;;;;;20.98;88.85;101585.56;5040473;28;20077;-73
2022/07/14 07:27:59;;;;;;;16.73;3.90;;;;;;;21.05;88.32;101585.34;5047422;28;20136;-74
2022/07/14 07:30:26;;;;;;;20.73;4.55;;;;;;;21.09;88.31;101588.84;5032817;28;20260;-75
2022/07/14 07:32:52;;;;;;;13.65;2.67;;;;;;;21.12;87.62;101582.34;5043170;28;20053;-72
2022/07/14 07:35:20;;;;;;;12.75;3.00;;;;;;;21.19;87.00;101585.69;5046028;28;20102;-72
2022/07/14 07:37:47;;;;;;;19.45;3.92;;;;;;;21.27;86.66;101589.09;5045293;28;20156;-72
2022/07/14 07:40:15;;;;;;;12.65;3.00;;;;;;;21.32;84.94;101588.50;5047642;28;20587;-75
2022/07/14 07:42:42;;;;;;;14.32;3.10;;;;;;;21.31;83.16;101575.69;5036700;28;20059;-72
2022/07/14 07:45:09;;;;;;;22.45;2.92;;;;;;;21.36;82.39;101578.72;5040361;28;20475;-72
2022/07/14 07:47:35;;;;;;;18.38;3.40;;;;;;;21.40;81.21;101576.56;5045202;28;20059;-73
2022/07/14 07:50:03;;;;;;;14.75;2.35;;;;;;;21.46;80.45;101569.16;5036345;28;20278;-72
2022/07/14 07:52:30;;;;;;;16.65;2.67;;;;;;;21.54;78.99;101573.31;5040744;28;20085;-69
2022/07/14 07:54:57;;;;;;;9.60;1.85;;;;;;;21.59;77.81;101575.56;5035663;28;20426;-69
2022/07/14 07:57:37;;;;;;;16.00;3.35;;;;;;;21.64;76.15;101577.81;5046050;28;20040;-68
2022/07/14 08:00:06;;;;;;;10.73;1.80;;;;;;;21.64;71.19;101577.03;5037347;28;20049;-74
2022/07/14 08:02:33;;;;;;;14.48;2.33;;;;;;;21.69;69.25;101573.63;5037706;28;20053;-71
2022/07/14 08:05:00;;;;;;;11.98;1.95;;;;;;;21.73;71.37;101575.13;5039863;28;20069;-72
2022/07/14 08:07:26;;;;;;;11.88;2.25;;;;;;;21.83;70.03;101578.81;5037303;28;20108;-74
2022/07/14 08:09:53;;;;;;;8.18;2.15;;;;;;;21.97;68.59;101556.56;5035485;28;20075;-69
2022/07/14 08:12:25;;;;;;;9.23;2.05;;;;;;;22.11;66.06;101566.56;5043311;28;20126;-72
2022/07/14 08:14:52;;;;;;;13.25;2.50;;;;;;;22.17;65.43;101562.72;5027910;28;20053;-73
2022/07/14 08:17:21;;;;;;;16.98;2.50;;;;;;;22.21;64.63;101559.78;5019912;28;20874;-76
2022/07/14 08:19:48;;;;;;;7.40;2.10;;;;;;;22.20;63.25;101558.97;5025034;28;20057;-76
2022/07/14 08:22:22;;;;;;;10.93;2.33;;;;;;;22.14;62.01;101557.97;5030258;28;20081;-77
2022/07/14 08:24:48;;;;;;;11.43;2.03;;;;;;;22.17;61.38;101564.75;5016856;28;20132;-74
2022/07/14 08:27:15;;;;;;;10.77;1.92;;;;;;;22.27;61.58;101558.72;5023719;28;20485;-77
2022/07/14 08:29:42;;;;;;;16.20;2.33;;;;;;;22.43;60.09;101557.75;5018730;28;20073;-74
2022/07/14 08:32:08;;;;;;;9.43;1.75;;;;;;;22.51;57.22;101548.59;5023579;28;20073;-78
2022/07/14 08:34:35;;;;;;;10.65;1.95;;;;;;;22.67;61.76;101547.59;5018419;28;20061;-77
2022/07/14 08:37:01;;;;;;;10.55;1.73;;;;;;;22.64;59.72;101537.25;5020311;28;20660;-75
2022/07/14 08:39:28;;;;;;;9.35;2.05;;;;;;;22.65;60.54;101536.78;5017094;28;20152;-73
2022/07/14 08:41:54;;;;;;;8.40;1.92;;;;;;;22.69;59.72;101533.84;5017362;28;20143;-77
2022/07/14 08:44:23;;;;;;;11.43;2.10;;;;;;;22.81;58.23;101537.81;5023301;28;20048;-75
2022/07/14 08:46:51;;;;;;;13.35;1.80;;;;;;;22.76;55.22;101527.91;5019451;28;20045;-77
2022/07/14 08:49:18;;;;;;;11.98;2.20;;;;;;;22.85;57.41;101527.19;5029489;28;20045;-78
2022/07/14 08:52:05;;;;;;;7.93;1.73;;;;;;;22.93;55.98;101532.09;5024864;28;20051;-76
2022/07/14 08:54:36;;;;;;;12.07;2.10;;;;;;;22.97;55.68;101532.72;5031957;28;20648;-77
2022/07/14 08:57:02;;;;;;;10.95;2.10;;;;;;;22.93;54.49;101539.75;5017937;28;20060;-78
2022/07/14 08:59:29;;;;;;;8.63;1.67;;;;;;;;;;5015015;28;20049;-74
2022/07/14 09:01:57;;;;;;;10.02;2.05;;;;;;;23.12;53.65;101533.75;5027263;28;20126;-79
2022/07/14 09:04:24;;;;;;;9.02;1.58;;;;;;;23.12;51.92;101545.06;5018837;28;20843;-77
2022/07/14 09:06:53;;;;;;;9.32;1.70;;;;;;;23.18;51.84;101546.00;5020628;28;20111;-73
2022/07/14 09:09:28;;;;;;;9.95;1.90;;;;;;;23.27;51.95;101539.63;5025258;28;20056;-76
2022/07/14 09:12:01;;;;;;;10.88;1.50;;;;;;;23.32;51.81;101539.03;5017559;28;20053;-78
2022/07/14 09:15:44;;;;;;;11.68;2.15;;;;;;;23.46;52.85;101546.94;5014158;28;20862;-77
2022/07/14 09:17:22;;;;;;;7.57;1.92;;;;;;;23.47;52.35;101537.19;5017050;28;20156;-73
2022/07/14 09:20:06;;;;;;;8.35;1.83;;;;;;;23.50;49.70;101542.72;5015276;28;20053;-77
2022/07/14 09:22:36;;;;;;;7.05;1.52;;;;;;;23.58;50.66;101538.31;5018022;28;20769;-82
2022/07/14 09:25:06;;;;;;;11.95;1.90;;;;;;;23.67;49.92;101540.38;5014879;28;20131;-77
2022/07/14 09:27:33;;;;;;;14.70;2.60;;;;;;;23.55;51.44;101532.84;5028206;28;20097;-78
2022/07/14 09:30:00;;;;;;;8.27;1.67;;;;;;;23.56;50.48;101523.91;5024335;28;20080;-76
2022/07/14 09:32:42;;;;;;;8.85;1.95;;;;;;;23.69;49.69;101524.53;5013487;28;20091;-77
2022/07/14 09:35:11;;;;;;;12.13;2.00;;;;;;;23.84;49.70;101527.53;5017645;28;20128;-82
2022/07/14 09:37:39;;;;;;;9.23;1.75;;;;;;;23.98;48.70;101524.13;5024144;28;20042;-79
2022/07/14 09:40:11;;;;;;;10.68;2.13;;;;;;;23.93;47.66;101528.34;5017354;28;20061;-77
2022/07/14 09:42:55;;;;;;;7.65;1.45;;;;;;;23.97;46.46;101531.84;5020489;28;20049;-79
2022/07/14 09:45:27;;;;;;;7.00;1.63;;;;;;;24.08;47.24;101526.50;5025922;28;20052;-76
2022/07/14 09:47:58;;;;;;;10.68;1.90;;;;;;;24.23;47.24;101527.44;5018536;28;21069;-73
2022/07/14 09:50:47;;;;;;;13.05;2.10;;;;;;;24.44;47.16;101520.03;5023257;28;20896;-75
2022/07/14 09:53:18;;;;;;;10.85;2.30;;;;;;;24.50;46.98;101524.56;5018253;28;20133;-76
2022/07/14 09:55:56;;;;;;;8.05;1.45;;;;;;;24.66;45.86;101521.44;5021608;28;20190;-76
2022/07/14 09:58:31;;;;;;;9.27;1.70;;;;;;;24.92;45.47;101522.63;5021724;28;20829;-76
2022/07/14 10:01:08;;;;;;;12.32;2.40;;;;;;;24.96;45.30;101526.06;5028278;28;20081;-75
2022/07/14 10:03:40;;;;;;;13.65;1.88;;;;;;;24.91;44.84;101515.38;5027226;28;20064;-74
2022/07/14 10:06:07;;;;;;;7.93;1.55;;;;;;;24.87;44.90;101517.59;5018731;28;20049;-72
2022/07/14 10:08:57;;;;;;;10.93;1.48;;;;;;;24.98;44.25;101517.09;5025280;28;20056;-74
2022/07/14 10:11:30;;;;;;;7.75;1.75;;;;;;;25.23;44.12;101519.50;5026712;28;20390;-72
2022/07/14 10:13:58;;;;;;;13.88;2.50;;;;;;;25.35;43.91;101526.25;5027583;28;20064;-73
2022/07/14 10:16:34;;;;;;;6.70;1.45;;;;;;;25.32;42.61;101515.88;5022705;28;20865;-71
2022/07/14 10:19:03;;;;;;;8.02;1.58;;;;;;;25.18;41.16;101517.34;5029728;28;20053;-73
2022/07/14 10:21:39;;;;;;;6.90;1.40;;;;;;;25.32;41.95;101515.88;5027699;28;20060;-74
2022/07/14 10:24:08;;;;;;;8.80;1.60;;;;;;;25.39;42.32;101521.19;5027743;28;21158;-72
2022/07/14 10:26:36;;;;;;;12.93;2.00;;;;;;;25.54;42.21;101513.56;5025739;28;20128;-74
2022/07/14 10:29:05;;;;;;;9.88;1.70;;;;;;;25.60;43.04;101505.94;5032203;28;20048;-76
2022/07/14 10:31:56;;;;;;;12.25;2.20;;;;;;;25.69;41.95;101505.88;5027871;28;20674;-73
2022/07/14 10:34:34;;;;;;;12.35;2.63;;;;;;;25.90;43.12;101510.47;5029938;28;20057;-71
2022/07/14 10:37:16;;;;;;;12.00;2.05;;;;;;;25.67;41.43;101511.25;5021669;28;20164;-78
2022/07/14 10:39:55;;;;;;;10.40;1.98;;;;;;;25.65;40.73;101510.97;5024562;28;20611;-80
2022/07/14 10:42:37;;;;;;;10.32;1.92;;;;;;;25.88;40.35;101513.78;5029893;28;20100;-76
2022/07/14 10:45:04;;;;;;;8.43;1.92;;;;;;;26.02;40.70;101503.78;5022918;28;20140;-76
2022/07/14 10:48:04;;;;;;;7.22;1.52;;;;;;;26.06;39.40;101512.88;5022554;28;20064;-77
2022/07/14 10:50:30;;;;;;;4.13;1.30;;;;;;;26.16;39.52;101505.88;5009797;28;20057;-71
2022/07/14 10:53:03;;;;;;;8.07;1.92;;;;;;;26.06;38.96;101510.84;5024214;28;20168;-70
2022/07/14 10:55:30;;;;;;;8.32;1.50;;;;;;;26.21;39.56;101505.19;5028193;28;20063;-74
2022/07/14 10:57:59;;;;;;;7.38;1.58;;;;;;;26.45;39.36;101505.91;5025969;28;20049;-74
2022/07/14 11:00:41;;;;;;;10.13;1.73;;;;;;;26.47;37.45;101511.88;5021307;28;20045;-72
2022/07/14 11:03:22;;;;;;;4.70;1.30;;;;;;;26.67;37.61;101512.81;5026176;28;20056;-78
2022/07/14 11:06:01;;;;;;;5.68;1.55;;;;;;;26.63;36.13;101508.59;5024568;28;20073;-75
2022/07/14 11:09:18;;;;;;;9.13;1.40;;;;;;;26.81;36.84;101503.50;5022189;28;20073;-80
2022/07/14 11:12:07;;;;;;;5.60;1.88;;;;;;;27.07;36.77;101512.94;5022716;28;20049;-76
2022/07/14 11:14:39;;;;;;;6.03;1.50;;;;;;;27.25;36.65;101509.91;5012212;28;20154;-81
2022/07/14 11:17:06;;;;;;;9.23;1.45;;;;;;;27.39;36.70;101509.09;5030031;28;20497;-78
2022/07/14 11:19:36;;;;;;;7.10;1.40;;;;;;;27.46;35.83;101498.59;5021824;28;20045;-75
2022/07/14 11:22:19;;;;;;;5.30;1.35;;;;;;;27.40;33.92;101495.66;5021628;28;20045;-75
2022/07/14 11:25:00;;;;;;;5.15;1.75;;;;;;;27.40;34.04;101487.13;5022045;28;20052;-75
2022/07/14 11:27:48;;;;;;;8.20;1.90;;;;;;;27.42;34.73;101495.94;5020376;28;20064;-77
2022/07/14 11:30:21;;;;;;;6.75;2.15;;;;;;;27.65;34.79;101483.59;5018047;28;20046;-77